Time;durP1;ratioP1;P1;durP2;ratioP2;P2;SDS_P1;SDS_P2;PMS_P1;PMS_P2;Temp;Humidity;BMP_temperature;BMP_pressure;BME280_temperature;BME280_humidity;BME280_pressure;Samples;Min_cycle;Max_cycle;Signal;HPM_P1;HPM_P2
2022/06/28 00:00:43;;;;;;;;;;;;;;;23.45;57.72;100206.56;2075418;28;20343;-48
2022/06/28 00:01:43;;;;;;;;;;;;;;;23.45;57.63;100205.69;2084131;28;19951;-46
2022/06/28 00:02:44;;;;;;;;;;;;;;;23.45;57.59;100212.06;2078158;28;19921;-46
2022/06/28 00:03:44;;;;;;;;;;;;;;;23.45;57.63;100212.06;2072591;28;19921;-46
2022/06/28 00:04:45;;;;;;;;;;;;;;;23.45;57.67;100214.81;2084057;28;19924;-45
2022/06/28 00:05:46;;;;;;;;;;;;;;;23.45;57.60;100209.31;2078061;28;19923;-45
2022/06/28 00:06:46;;;;;;;;;;;;;;;23.45;57.70;100206.56;2077069;28;19921;-46
2022/06/28 00:07:47;;;;;;;;;;;;;;;23.45;57.90;100209.31;2077310;28;19926;-47
2022/06/28 00:08:47;;;;;;;;;;;;;;;23.45;57.59;100208.44;2079072;28;19917;-46
2022/06/28 00:09:48;;;;;;;;;;;;;;;23.45;57.63;100197.44;2072624;28;19918;-47
2022/06/28 00:10:48;;;;;;;;;;;;;;;23.44;57.59;100204.81;2073831;28;19916;-45
2022/06/28 00:11:49;;;;;;;;;;;;;;;23.45;57.58;100212.06;2076656;28;20307;-46
2022/06/28 00:12:49;;;;;;;;;;;;;;;23.44;57.68;100202.06;2070738;28;19952;-46
2022/06/28 00:13:49;;;;;;;;;;;;;;;23.44;57.67;100196.56;2078926;28;19927;-45
2022/06/28 00:16:14;;;;;;;;;;;;;;;23.43;57.64;100200.38;2076030;28;20223;-46
2022/06/28 00:17:15;;;;;;;;;;;;;;;23.44;57.61;100193.81;2078881;28;19923;-46
2022/06/28 00:18:15;;;;;;;;;;;;;;;23.43;57.68;100189.38;2074240;28;20335;-46
2022/06/28 00:19:16;;;;;;;;;;;;;;;23.44;57.59;100191.06;2077263;28;19916;-46
2022/06/28 00:20:16;;;;;;;;;;;;;;;23.44;57.70;100192.97;2081358;28;19946;-48
2022/06/28 00:21:16;;;;;;;;;;;;;;;23.43;57.63;100186.63;2082235;28;20024;-46
2022/06/28 00:22:17;;;;;;;;;;;;;;;23.43;57.65;100189.38;2078912;28;19916;-45
2022/06/28 00:23:17;;;;;;;;;;;;;;;23.43;57.62;100177.50;2074897;28;19924;-46
2022/06/28 00:24:17;;;;;;;;;;;;;;;23.43;57.60;100183.84;2080155;28;20006;-45
2022/06/28 00:25:18;;;;;;;;;;;;;;;23.43;57.63;100181.09;2078446;28;20065;-45
2022/06/28 00:26:18;;;;;;;;;;;;;;;23.42;57.71;100182.16;2076120;28;20283;-46
2022/06/28 00:27:19;;;;;;;;;;;;;;;23.43;57.70;100180.25;2075031;28;20324;-45
2022/06/28 00:28:19;;;;;;;;;;;;;;;23.42;57.56;100176.66;2076150;28;19916;-45
2022/06/28 00:29:19;;;;;;;;;;;;;;;23.43;57.68;100178.34;2076772;28;19917;-46
2022/06/28 00:30:19;;;;;;;;;;;;;;;23.41;57.62;100174.91;2073695;28;19917;-46
2022/06/28 00:31:21;;;;;;;;;;;;;;;23.41;57.67;100177.66;2080848;28;19917;-45
2022/06/28 00:32:21;;;;;;;;;;;;;;;23.42;57.59;100176.66;2078393;28;20513;-45
2022/06/28 00:33:21;;;;;;;;;;;;;;;23.42;57.58;100179.41;2079743;28;19917;-45
2022/06/28 00:34:22;;;;;;;;;;;;;;;23.42;57.65;100175.78;2077872;28;20203;-45
2022/06/28 00:35:22;;;;;;;;;;;;;;;23.42;57.64;100179.41;2078493;28;19924;-46
2022/06/28 00:36:23;;;;;;;;;;;;;;;23.43;57.56;100177.50;2076753;28;19924;-48
2022/06/28 00:37:23;;;;;;;;;;;;;;;23.42;57.65;100179.41;2079428;28;20306;-46
2022/06/28 00:38:23;;;;;;;;;;;;;;;23.42;57.57;100165.66;2071167;28;19924;-48
2022/06/28 00:39:24;;;;;;;;;;;;;;;23.42;57.80;100162.91;2077757;28;19924;-46
2022/06/28 00:40:24;;;;;;;;;;;;;;;23.42;57.57;100162.00;2071652;28;19913;-46
2022/06/28 00:41:25;;;;;;;;;;;;;;;23.42;57.62;100165.66;2080509;28;19917;-48
2022/06/28 00:42:25;;;;;;;;;;;;;;;23.42;57.57;100160.16;2078579;28;19916;-47
2022/06/28 00:43:26;;;;;;;;;;;;;;;23.41;57.55;100158.41;2072996;28;19916;-45
2022/06/28 00:44:27;;;;;;;;;;;;;;;23.41;57.61;100158.41;2075398;28;19917;-47
2022/06/28 00:45:27;;;;;;;;;;;;;;;23.42;57.70;100162.00;2072758;28;20371;-48
2022/06/28 00:46:28;;;;;;;;;;;;;;;23.41;57.72;100152.91;2077035;28;19944;-47
2022/06/28 00:47:29;;;;;;;;;;;;;;;23.41;57.66;100163.91;2079310;28;20212;-45
2022/06/28 00:48:30;;;;;;;;;;;;;;;23.40;57.66;100167.72;2077233;28;19927;-46
2022/06/28 00:49:30;;;;;;;;;;;;;;;23.40;57.63;100156.72;2078837;28;20009;-45
2022/06/28 00:50:33;;;;;;;;;;;;;;;23.41;57.60;100152.06;2079765;28;19921;-46
2022/06/28 00:51:33;;;;;;;;;;;;;;;23.41;57.64;100163.06;2077871;28;19917;-46
2022/06/28 00:52:36;;;;;;;;;;;;;;;23.40;57.68;100151.22;2079307;28;20461;-46
2022/06/28 00:53:36;;;;;;;;;;;;;;;23.40;57.82;100156.72;2073435;28;19924;-46
2022/06/28 00:54:37;;;;;;;;;;;;;;;23.41;57.62;100163.06;2078044;28;19931;-45
2022/06/28 00:55:39;;;;;;;;;;;;;;;23.40;57.81;100156.72;2075939;28;20382;-45
2022/06/28 00:56:39;;;;;;;;;;;;;;;23.41;57.71;100157.56;2073892;28;19924;-46
2022/06/28 00:57:40;;;;;;;;;;;;;;;23.40;57.74;100155.88;2074816;28;19966;-46
2022/06/28 00:58:40;;;;;;;;;;;;;;;23.41;57.75;100157.56;2079131;28;19964;-46
2022/06/28 00:59:40;;;;;;;;;;;;;;;23.40;57.76;100153.97;2078242;28;19920;-46
2022/06/28 01:00:45;;;;;;;;;;;;;;;23.41;57.78;100158.41;2073438;28;20815;-45
2022/06/28 01:01:46;;;;;;;;;;;;;;;23.40;57.71;100151.22;2074054;28;20193;-46
2022/06/28 01:02:46;;;;;;;;;;;;;;;23.40;57.68;100150.34;2075325;28;20251;-46
2022/06/28 01:03:46;;;;;;;;;;;;;;;23.39;57.79;100148.63;2074736;28;19948;-45
2022/06/28 01:04:47;;;;;;;;;;;;;;;23.39;57.76;100143.97;2075330;28;19970;-45
2022/06/28 01:05:47;;;;;;;;;;;;;;;23.39;57.74;100149.47;2072724;28;20405;-45
2022/06/28 01:06:48;;;;;;;;;;;;;;;23.38;57.57;100150.53;2074272;28;20146;-45
2022/06/28 01:07:48;;;;;;;;;;;;;;;23.39;57.68;100152.22;2077055;28;19989;-45
2022/06/28 01:08:49;;;;;;;;;;;;;;;23.38;57.70;100149.69;2076989;28;20190;-45
2022/06/28 01:09:49;;;;;;;;;;;;;;;23.38;57.71;100147.78;2075520;28;19917;-46
2022/06/28 01:10:49;;;;;;;;;;;;;;;23.38;57.56;100150.53;2070185;28;19916;-45
2022/06/28 01:11:50;;;;;;;;;;;;;;;23.38;57.67;100146.91;2073608;28;20609;-48
2022/06/28 01:12:50;;;;;;;;;;;;;;;23.38;57.61;100147.78;2077095;28;20412;-47
2022/06/28 01:13:52;;;;;;;;;;;;;;;23.39;57.68;100149.47;2075891;28;19917;-45
2022/06/28 01:14:52;;;;;;;;;;;;;;;23.37;57.60;100151.56;2075649;28;19924;-46
2022/06/28 01:15:53;;;;;;;;;;;;;;;23.38;57.72;100155.19;2077255;28;20357;-47
2022/06/28 01:16:53;;;;;;;;;;;;;;;23.38;57.53;100146.91;2075700;28;19917;-45
2022/06/28 01:17:54;;;;;;;;;;;;;;;23.39;57.63;100149.47;2075266;28;19939;-46
2022/06/28 01:18:54;;;;;;;;;;;;;;;23.38;57.69;100153.28;2078263;28;20323;-46
2022/06/28 01:19:55;;;;;;;;;;;;;;;23.38;57.59;100145.03;2064056;28;19944;-45
2022/06/28 01:20:55;;;;;;;;;;;;;;;23.39;57.64;100149.47;2070210;28;20391;-45
2022/06/28 01:21:55;;;;;;;;;;;;;;;23.38;57.69;100149.69;2075662;28;19909;-45
2022/06/28 01:22:56;;;;;;;;;;;;;;;23.38;57.70;100141.41;2078187;28;19913;-46
2022/06/28 01:23:57;;;;;;;;;;;;;;;23.38;57.75;100142.28;2077240;28;20264;-45
2022/06/28 01:24:58;;;;;;;;;;;;;;;23.37;57.68;100143.31;2074918;28;20602;-45
2022/06/28 01:25:59;;;;;;;;;;;;;;;23.37;57.75;100143.31;2074351;28;20612;-52
2022/06/28 01:26:59;;;;;;;;;;;;;;;23.37;57.75;100145.19;2079310;28;19986;-49
2022/06/28 01:28:00;;;;;;;;;;;;;;;23.38;57.72;100141.41;2066603;28;19917;-47
2022/06/28 01:29:00;;;;;;;;;;;;;;;23.38;57.67;100138.66;2069125;28;19955;-49
2022/06/28 01:30:02;;;;;;;;;;;;;;;23.37;57.76;100135.06;2073943;28;20506;-46
2022/06/28 01:31:03;;;;;;;;;;;;;;;23.38;57.72;100134.03;2075639;28;20348;-47
2022/06/28 01:32:04;;;;;;;;;;;;;;;23.37;57.73;100140.56;2077461;28;19915;-46
2022/06/28 01:33:04;;;;;;;;;;;;;;;23.36;57.71;100136.09;2077664;28;19964;-46
2022/06/28 01:34:05;;;;;;;;;;;;;;;23.37;57.62;100135.06;2081521;28;19948;-47
2022/06/28 01:35:05;;;;;;;;;;;;;;;23.37;57.73;100135.06;2081125;28;20398;-45
2022/06/28 01:36:06;;;;;;;;;;;;;;;23.37;57.78;100124.06;2067504;28;20493;-46
2022/06/28 01:37:07;;;;;;;;;;;;;;;23.37;57.78;100125.94;2068799;28;20001;-46
2022/06/28 01:38:09;;;;;;;;;;;;;;;23.36;57.83;100121.47;2067252;28;20040;-46
2022/06/28 01:39:10;;;;;;;;;;;;;;;23.37;57.83;100129.56;2068715;28;19929;-46
2022/06/28 01:40:10;;;;;;;;;;;;;;;23.35;57.74;100123.38;2076645;28;20396;-46
2022/06/28 01:41:32;;;;;;;;;;;;;;;23.36;57.70;100119.59;2075275;28;20450;-46
2022/06/28 01:42:31;;;;;;;;;;;;;;;23.36;57.74;100127.84;2075802;28;19966;-46
2022/06/28 01:43:32;;;;;;;;;;;;;;;23.36;57.87;100126.97;2072185;28;19971;-45
2022/06/28 01:44:33;;;;;;;;;;;;;;;23.35;57.84;100126.13;2075885;28;20741;-46
2022/06/28 01:45:33;;;;;;;;;;;;;;;23.35;57.76;100120.63;2078100;28;19924;-46
2022/06/28 01:46:35;;;;;;;;;;;;;;;23.35;57.80;100126.13;2076157;28;19982;-45
2022/06/28 01:47:36;;;;;;;;;;;;;;;23.35;57.77;100117.88;2077199;28;19967;-45
2022/06/28 01:48:37;;;;;;;;;;;;;;;23.35;57.78;100119.75;2076548;28;19924;-46
2022/06/28 01:49:37;;;;;;;;;;;;;;;23.34;57.83;100113.41;2075123;28;19916;-46
2022/06/28 01:50:37;;;;;;;;;;;;;;;23.35;57.63;100117.00;2076682;28;20025;-45
2022/06/28 01:51:38;;;;;;;;;;;;;;;23.34;57.77;100118.91;2075445;28;19923;-45
2022/06/28 01:52:40;;;;;;;;;;;;;;;23.34;57.78;100107.91;2077781;28;20357;-45
2022/06/28 01:53:40;;;;;;;;;;;;;;;23.34;57.76;100107.91;2075581;28;19917;-46
2022/06/28 01:54:41;;;;;;;;;;;;;;;23.33;57.67;100109.78;2076232;28;20139;-45
2022/06/28 01:55:41;;;;;;;;;;;;;;;23.34;57.75;100107.91;2078563;28;19970;-45
2022/06/28 01:56:43;;;;;;;;;;;;;;;23.34;57.68;100102.41;2075220;28;20473;-45
2022/06/28 01:57:43;;;;;;;;;;;;;;;23.34;57.69;100107.91;2080700;28;19916;-45
2022/06/28 01:58:43;;;;;;;;;;;;;;;23.33;57.64;100111.69;2075849;28;19966;-45
2022/06/28 01:59:44;;;;;;;;;;;;;;;23.34;57.67;100107.91;2076665;28;19957;-45
2022/06/28 02:00:44;;;;;;;;;;;;;;;23.33;57.68;100111.69;2077918;28;20314;-48
2022/06/28 02:01:45;;;;;;;;;;;;;;;23.33;57.70;100106.19;2076663;28;19917;-47
2022/06/28 02:02:45;;;;;;;;;;;;;;;23.34;57.72;100113.41;2073330;28;19917;-46
2022/06/28 02:03:45;;;;;;;;;;;;;;;23.34;57.79;100107.91;2076548;28;20254;-45
2022/06/28 02:04:45;;;;;;;;;;;;;;;23.34;57.80;100107.91;2078427;28;19923;-45
2022/06/28 02:05:46;;;;;;;;;;;;;;;23.33;57.78;100111.69;2081667;28;19916;-47
2022/06/28 02:06:46;;;;;;;;;;;;;;;23.35;57.69;100111.50;2078436;28;19995;-46
2022/06/28 02:07:47;;;;;;;;;;;;;;;23.33;57.84;100100.69;2076250;28;19920;-46
2022/06/28 02:08:47;;;;;;;;;;;;;;;23.33;57.82;100108.94;2083941;28;20322;-47
2022/06/28 02:09:47;;;;;;;;;;;;;;;23.33;57.80;100100.69;2078964;28;20235;-46
2022/06/28 02:10:48;;;;;;;;;;;;;;;23.33;57.77;100100.69;2081997;28;19920;-46
2022/06/28 02:11:48;;;;;;;;;;;;;;;23.33;57.71;100108.94;2079133;28;19990;-45
2022/06/28 02:12:49;;;;;;;;;;;;;;;23.34;57.72;100113.41;2081960;28;19931;-45
2022/06/28 02:13:49;;;;;;;;;;;;;;;23.33;57.87;100111.69;2077611;28;19954;-45
2022/06/28 02:14:50;;;;;;;;;;;;;;;23.33;57.77;100101.53;2076184;28;19966;-45
2022/06/28 02:15:50;;;;;;;;;;;;;;;23.33;57.69;100108.94;2085241;28;19917;-46
2022/06/28 02:16:51;;;;;;;;;;;;;;;23.33;57.81;100108.94;2070900;28;19917;-47
2022/06/28 02:17:51;;;;;;;;;;;;;;;23.33;57.82;100103.44;2073985;28;20376;-46
2022/06/28 02:18:51;;;;;;;;;;;;;;;23.32;57.87;100105.34;2082924;28;20233;-46
2022/06/28 02:19:52;;;;;;;;;;;;;;;23.32;57.75;100098.97;2080492;28;20066;-46
2022/06/28 02:20:52;;;;;;;;;;;;;;;23.32;57.74;100104.47;2083042;28;19928;-46
2022/06/28 02:21:53;;;;;;;;;;;;;;;23.32;57.87;100101.72;2077431;28;19917;-45
2022/06/28 02:22:53;;;;;;;;;;;;;;;23.33;57.87;100100.69;2075704;28;20263;-45
2022/06/28 02:23:53;;;;;;;;;;;;;;;23.31;57.95;100098.09;2077409;28;20185;-45
2022/06/28 02:24:54;;;;;;;;;;;;;;;23.32;57.84;100101.72;2072130;28;20435;-46
2022/06/28 02:25:54;;;;;;;;;;;;;;;23.31;57.83;100089.00;2075185;28;20492;-45
2022/06/28 02:26:54;;;;;;;;;;;;;;;23.31;57.88;100091.75;2076539;28;19931;-46
2022/06/28 02:27:55;;;;;;;;;;;;;;;23.31;57.81;100091.75;2076272;28;19920;-50
2022/06/28 02:28:55;;;;;;;;;;;;;;;23.30;57.82;100099.16;2075621;28;19956;-46
2022/06/28 02:29:55;;;;;;;;;;;;;;;23.30;57.78;100088.16;2077416;28;20429;-45
2022/06/28 02:30:56;;;;;;;;;;;;;;;23.31;57.72;100089.00;2075946;28;20055;-45
2022/06/28 02:31:56;;;;;;;;;;;;;;;23.30;57.79;100090.91;2077610;28;20311;-46
2022/06/28 02:32:56;;;;;;;;;;;;;;;23.30;57.76;100087.31;2075427;28;20142;-46
2022/06/28 02:33:57;;;;;;;;;;;;;;;23.29;57.71;100083.66;2075807;28;20319;-45
2022/06/28 02:40:30;;;;;;;;;;;;;;;23.31;57.71;100083.50;2052378;28;20172;-46
2022/06/28 02:41:30;;;;;;;;;;;;;;;23.30;57.72;100087.31;2056459;28;19949;-45
2022/06/28 02:42:30;;;;;;;;;;;;;;;23.30;57.80;100085.41;2060796;28;19964;-47
2022/06/28 02:43:31;;;;;;;;;;;;;;;23.30;57.80;100084.56;2075659;28;19992;-46
2022/06/28 02:44:31;;;;;;;;;;;;;;;23.30;57.75;100084.56;2084205;28;20002;-45
2022/06/28 02:45:35;;;;;;;;;;;;;;;23.30;57.83;100090.91;2078561;28;19955;-46
2022/06/28 02:46:36;;;;;;;;;;;;;;;23.30;57.80;100084.56;2073876;28;19966;-45
2022/06/28 02:47:36;;;;;;;;;;;;;;;23.30;57.73;100084.56;2081829;28;19923;-46
2022/06/28 02:48:36;;;;;;;;;;;;;;;23.30;57.83;100076.31;2077350;28;20003;-45
2022/06/28 02:49:36;;;;;;;;;;;;;;;23.31;57.78;100080.75;2072778;28;19921;-46
2022/06/28 02:50:37;;;;;;;;;;;;;;;23.29;57.82;100072.66;2074017;28;19936;-46
2022/06/28 02:51:37;;;;;;;;;;;;;;;23.29;57.85;100072.66;2074547;28;20290;-46
2022/06/28 02:52:37;;;;;;;;;;;;;;;23.29;57.83;100074.56;2078180;28;20293;-46
2022/06/28 02:53:38;;;;;;;;;;;;;;;23.28;57.92;100070.13;2068733;28;19952;-46
2022/06/28 02:54:38;;;;;;;;;;;;;;;23.29;57.89;100074.56;2076539;28;20728;-46
2022/06/28 02:55:38;;;;;;;;;;;;;;;23.29;57.85;100071.81;2073798;28;19916;-45
2022/06/28 02:56:40;;;;;;;;;;;;;;;23.29;57.79;100067.16;2076658;28;19987;-48
2022/06/28 02:57:40;;;;;;;;;;;;;;;23.29;57.73;100069.91;2075933;28;20149;-45
2022/06/28 02:58:41;;;;;;;;;;;;;;;23.28;57.78;100065.47;2070047;28;20472;-48
2022/06/28 02:59:41;;;;;;;;;;;;;;;23.29;57.92;100066.31;2074405;28;20041;-45
2022/06/28 03:00:41;;;;;;;;;;;;;;;23.28;57.88;100068.22;2074804;28;19917;-47
2022/06/28 03:01:42;;;;;;;;;;;;;;;23.28;57.85;100064.63;2076565;28;19991;-45
2022/06/28 03:02:43;;;;;;;;;;;;;;;23.28;57.92;100070.13;2073783;28;19905;-45
2022/06/28 03:03:43;;;;;;;;;;;;;;;23.28;57.93;100064.63;2074980;28;19917;-46
2022/06/28 03:04:43;;;;;;;;;;;;;;;23.27;57.93;100062.88;2073845;28;20157;-46
2022/06/28 03:05:44;;;;;;;;;;;;;;;23.26;57.86;100061.19;2077211;28;19943;-46
2022/06/28 03:06:44;;;;;;;;;;;;;;;23.28;57.98;100070.13;2075448;28;19917;-46
2022/06/28 03:07:44;;;;;;;;;;;;;;;23.27;57.93;100073.88;2076583;28;20243;-45
2022/06/28 03:08:45;;;;;;;;;;;;;;;23.26;57.78;100066.69;2078028;28;20368;-46
2022/06/28 03:09:45;;;;;;;;;;;;;;;23.27;57.80;100073.88;2075564;28;19916;-45
2022/06/28 03:10:45;;;;;;;;;;;;;;;23.26;57.90;100073.03;2079631;28;19923;-45
2022/06/28 03:11:46;;;;;;;;;;;;;;;23.28;57.79;100072.88;2076997;28;19917;-45
2022/06/28 03:12:46;;;;;;;;;;;;;;;23.27;57.74;100074.78;2080891;28;20617;-47
2022/06/28 03:13:47;;;;;;;;;;;;;;;23.27;57.84;100068.38;2078239;28;20279;-46
2022/06/28 03:14:47;;;;;;;;;;;;;;;23.25;57.84;100068.59;2072704;28;19924;-45
2022/06/28 03:15:48;;;;;;;;;;;;;;;23.27;57.78;100068.38;2068915;28;19921;-45
2022/06/28 03:16:48;;;;;;;;;;;;;;;23.26;57.78;100070.28;2071017;28;19927;-45
2022/06/28 03:17:49;;;;;;;;;;;;;;;23.27;57.69;100076.63;2078969;28;19917;-47
2022/06/28 03:18:49;;;;;;;;;;;;;;;23.27;57.85;100079.38;2074250;28;19935;-46
2022/06/28 03:19:49;;;;;;;;;;;;;;;23.27;57.71;100079.38;2077375;28;19920;-45
2022/06/28 03:20:50;;;;;;;;;;;;;;;23.27;57.80;100076.63;2076215;28;19927;-46
2022/06/28 03:21:51;;;;;;;;;;;;;;;23.26;57.70;100077.69;2077245;28;19917;-46
2022/06/28 03:22:51;;;;;;;;;;;;;;;23.28;57.79;100070.13;2066829;28;20008;-45
2022/06/28 03:23:52;;;;;;;;;;;;;;;23.27;57.84;100071.13;2070092;28;21227;-45
2022/06/28 03:24:52;;;;;;;;;;;;;;;23.26;57.77;100074.94;2080234;28;20389;-46
2022/06/28 03:25:52;;;;;;;;;;;;;;;23.27;57.90;100079.38;2069047;28;19913;-46
2022/06/28 03:26:53;;;;;;;;;;;;;;;23.26;57.86;100070.28;2072206;28;20638;-45
2022/06/28 03:27:53;;;;;;;;;;;;;;;23.27;57.90;100076.63;2066575;28;20315;-45
2022/06/28 03:28:54;;;;;;;;;;;;;;;23.25;57.87;100076.84;2073703;28;20001;-46
2022/06/28 03:29:54;;;;;;;;;;;;;;;23.26;57.80;100074.94;2083254;28;20523;-45
2022/06/28 03:30:55;;;;;;;;;;;;;;;23.26;57.95;100066.69;2078038;28;20482;-45
2022/06/28 03:31:55;;;;;;;;;;;;;;;23.26;57.87;100072.19;2083657;28;19935;-45
2022/06/28 03:32:55;;;;;;;;;;;;;;;23.26;57.95;100072.19;2077068;28;19968;-45
2022/06/28 03:33:56;;;;;;;;;;;;;;;23.25;57.92;100070.44;2073596;28;20165;-47
2022/06/28 03:34:56;;;;;;;;;;;;;;;23.25;57.94;100067.69;2079404;28;19956;-47
2022/06/28 03:35:56;;;;;;;;;;;;;;;23.25;57.89;100064.94;2077238;28;19967;-46
2022/06/28 03:36:56;;;;;;;;;;;;;;;23.25;57.89;100074.09;2079384;28;19971;-46
2022/06/28 03:37:57;;;;;;;;;;;;;;;23.24;57.93;100064.09;2076500;28;19912;-45
2022/06/28 03:38:57;;;;;;;;;;;;;;;23.25;58.04;100082.34;2073243;28;19928;-45
2022/06/28 03:39:58;;;;;;;;;;;;;;;23.25;57.93;100070.44;2079505;28;20153;-44
2022/06/28 03:40:58;;;;;;;;;;;;;;;23.25;57.96;100067.69;2074120;28;20345;-45
2022/06/28 03:41:58;;;;;;;;;;;;;;;23.25;57.91;100073.19;2077050;28;19965;-45
2022/06/28 03:42:59;;;;;;;;;;;;;;;23.25;58.02;100070.44;2076670;28;20351;-45
2022/06/28 03:43:59;;;;;;;;;;;;;;;23.24;57.94;100074.25;2074321;28;20328;-45
2022/06/28 03:45:00;;;;;;;;;;;;;;;23.24;58.03;100077.00;2076466;28;19913;-45
2022/06/28 03:46:00;;;;;;;;;;;;;;;23.24;57.98;100071.50;2075015;28;20122;-45
2022/06/28 03:47:00;;;;;;;;;;;;;;;23.24;57.94;100068.75;2076506;28;20290;-45
2022/06/28 03:48:01;;;;;;;;;;;;;;;23.23;57.98;100067.91;2075844;28;20251;-47
2022/06/28 03:49:01;;;;;;;;;;;;;;;23.24;58.00;100068.75;2075612;28;19928;-49
2022/06/28 03:50:02;;;;;;;;;;;;;;;23.23;57.87;100056.03;2070133;28;19995;-46
2022/06/28 03:51:02;;;;;;;;;;;;;;;23.24;57.89;100060.50;2071399;28;19923;-48
2022/06/28 03:52:03;;;;;;;;;;;;;;;23.23;57.87;100058.78;2076998;28;19923;-46
2022/06/28 03:53:03;;;;;;;;;;;;;;;23.21;57.88;100053.47;2073626;28;19917;-45
2022/06/28 03:54:03;;;;;;;;;;;;;;;23.23;57.80;100064.28;2076234;28;20912;-46
2022/06/28 03:55:06;;;;;;;;;;;;;;;23.23;57.80;100056.03;2077255;28;19923;-45
2022/06/28 03:56:07;;;;;;;;;;;;;;;23.23;57.89;100056.03;2074691;28;20004;-45
2022/06/28 03:57:07;;;;;;;;;;;;;;;23.23;57.85;100064.28;2076873;28;19921;-45
2022/06/28 03:58:08;;;;;;;;;;;;;;;23.23;57.80;100053.28;2067724;28;20028;-46
2022/06/28 03:59:08;;;;;;;;;;;;;;;23.23;57.93;100050.53;2068544;28;20764;-45
2022/06/28 04:00:09;;;;;;;;;;;;;;;23.23;57.96;100061.53;2068519;28;19924;-45
2022/06/28 04:01:09;;;;;;;;;;;;;;;23.23;57.94;100056.03;2070042;28;19925;-45
2022/06/28 04:02:10;;;;;;;;;;;;;;;23.23;57.94;100056.03;2065962;28;19985;-46
2022/06/28 04:03:10;;;;;;;;;;;;;;;23.23;57.87;100053.28;2075425;28;19958;-46
2022/06/28 04:04:10;;;;;;;;;;;;;;;23.22;58.00;100049.66;2074700;28;19958;-45
2022/06/28 04:05:11;;;;;;;;;;;;;;;23.22;57.87;100048.81;2078936;28;19995;-45
2022/06/28 04:06:11;;;;;;;;;;;;;;;23.22;57.96;100054.31;2076034;28;19908;-46
2022/06/28 04:07:11;;;;;;;;;;;;;;;23.22;58.05;100040.56;2073695;28;20315;-45
2022/06/28 04:08:11;;;;;;;;;;;;;;;23.23;58.04;100045.03;2070336;28;20104;-45
2022/06/28 04:09:12;;;;;;;;;;;;;;;23.22;58.02;100051.56;2074031;28;20015;-46
2022/06/28 04:10:12;;;;;;;;;;;;;;;23.23;57.96;100042.28;2071781;28;19910;-46
2022/06/28 04:11:16;;;;;;;;;;;;;;;23.22;57.90;100043.31;2077978;28;19909;-47
2022/06/28 04:12:16;;;;;;;;;;;;;;;23.21;57.99;100047.97;2077525;28;19916;-46
2022/06/28 04:13:17;;;;;;;;;;;;;;;23.22;57.94;100043.31;2069486;28;19924;-45
2022/06/28 04:14:17;;;;;;;;;;;;;;;23.21;57.95;100041.63;2074305;28;19917;-46
2022/06/28 04:15:17;;;;;;;;;;;;;;;23.22;58.06;100043.31;2073961;28;19958;-46
2022/06/28 04:16:18;;;;;;;;;;;;;;;23.21;57.96;100036.13;2074239;28;20206;-46
2022/06/28 04:17:18;;;;;;;;;;;;;;;23.21;57.94;100044.38;2078531;28;20513;-47
2022/06/28 04:18:19;;;;;;;;;;;;;;;23.21;57.96;100039.72;2077599;28;19940;-46
2022/06/28 04:19:19;;;;;;;;;;;;;;;23.21;57.98;100036.97;2075451;28;19928;-45
2022/06/28 04:20:19;;;;;;;;;;;;;;;23.21;58.08;100041.63;2075028;28;20000;-46
2022/06/28 04:21:20;;;;;;;;;;;;;;;23.21;58.03;100044.38;2075489;28;19952;-47
2022/06/28 04:22:20;;;;;;;;;;;;;;;23.20;58.07;100039.88;2081110;28;19909;-45
2022/06/28 04:23:21;;;;;;;;;;;;;;;23.20;57.96;100037.13;2072471;28;19913;-46
2022/06/28 04:24:21;;;;;;;;;;;;;;;23.20;57.96;100040.75;2075761;28;19982;-48
2022/06/28 04:25:21;;;;;;;;;;;;;;;23.20;57.94;100039.88;2078061;28;20226;-46
2022/06/28 04:26:22;;;;;;;;;;;;;;;23.19;58.04;100036.28;2075000;28;19916;-45
2022/06/28 04:27:22;;;;;;;;;;;;;;;23.19;57.90;100039.03;2077741;28;20328;-50
2022/06/28 04:28:22;;;;;;;;;;;;;;;23.20;57.93;100040.75;2072713;28;20337;-45
2022/06/28 04:29:22;;;;;;;;;;;;;;;23.19;57.99;100032.69;2073632;28;19917;-47
2022/06/28 04:30:25;;;;;;;;;;;;;;;23.19;57.98;100041.78;2072875;28;20530;-46
2022/06/28 04:31:25;;;;;;;;;;;;;;;23.19;57.96;100038.19;2072876;28;19958;-45
2022/06/28 04:32:25;;;;;;;;;;;;;;;23.20;57.89;100042.63;2076937;28;19916;-45
2022/06/28 04:33:26;;;;;;;;;;;;;;;23.20;57.93;100039.88;2076422;28;20401;-47
2022/06/28 04:34:27;;;;;;;;;;;;;;;23.20;57.96;100045.38;2077793;28;19917;-46
2022/06/28 04:35:27;;;;;;;;;;;;;;;23.19;57.99;100038.19;2074787;28;19912;-46
2022/06/28 04:36:27;;;;;;;;;;;;;;;23.20;57.79;100034.38;2076453;28;19917;-47
2022/06/28 04:37:28;;;;;;;;;;;;;;;23.20;57.81;100031.63;2078305;28;19939;-47
2022/06/28 04:38:28;;;;;;;;;;;;;;;23.20;58.01;100034.38;2076678;28;19920;-46
2022/06/28 04:39:28;;;;;;;;;;;;;;;23.20;57.90;100035.25;2077120;28;19917;-48
2022/06/28 04:40:29;;;;;;;;;;;;;;;23.19;57.91;100032.69;2079640;28;19923;-46
2022/06/28 04:41:29;;;;;;;;;;;;;;;23.20;57.92;100042.63;2076440;28;19924;-46
2022/06/28 04:42:29;;;;;;;;;;;;;;;23.20;58.05;100037.13;2078089;28;19912;-47
2022/06/28 04:43:30;;;;;;;;;;;;;;;23.19;58.05;100038.19;2078478;28;19920;-45
2022/06/28 04:44:31;;;;;;;;;;;;;;;23.19;58.10;100036.28;2078058;28;19908;-46
2022/06/28 04:45:32;;;;;;;;;;;;;;;23.19;57.92;100038.19;2080376;28;19909;-46
2022/06/28 04:46:32;;;;;;;;;;;;;;;23.20;58.10;100037.13;2075185;28;20594;-46
2022/06/28 04:47:33;;;;;;;;;;;;;;;23.19;58.08;100039.03;2068692;28;19921;-47
2022/06/28 04:48:33;;;;;;;;;;;;;;;23.19;58.09;100040.94;2071521;28;20119;-45
2022/06/28 04:49:34;;;;;;;;;;;;;;;23.19;57.89;100050.03;2073286;28;19921;-45
2022/06/28 04:50:34;;;;;;;;;;;;;;;23.18;58.09;100044.72;2079885;28;19928;-46
2022/06/28 04:51:35;;;;;;;;;;;;;;;23.18;58.04;100041.97;2068146;28;19959;-46
2022/06/28 04:52:36;;;;;;;;;;;;;;;23.18;57.96;100045.56;2068856;28;19935;-46
2022/06/28 04:53:38;;;;;;;;;;;;;;;23.18;58.06;100047.47;2079522;28;20911;-46
2022/06/28 04:54:38;;;;;;;;;;;;;;;23.19;58.01;100043.69;2076036;28;20329;-46
2022/06/28 04:55:38;;;;;;;;;;;;;;;23.18;58.06;100042.81;2079047;28;19950;-46
2022/06/28 04:56:39;;;;;;;;;;;;;;;23.18;58.13;100042.81;2072727;28;20075;-45
2022/06/28 04:57:39;;;;;;;;;;;;;;;23.18;58.10;100042.81;2074659;28;19940;-46
2022/06/28 04:58:40;;;;;;;;;;;;;;;23.18;58.16;100047.47;2079339;28;20074;-46
2022/06/28 04:59:40;;;;;;;;;;;;;;;23.18;58.09;100044.72;2079171;28;20780;-49
2022/06/28 05:00:40;;;;;;;;;;;;;;;23.18;58.18;100041.97;2072933;28;20014;-46
2022/06/28 05:01:40;;;;;;;;;;;;;;;23.18;58.17;100045.56;2073718;28;20271;-45
2022/06/28 05:02:41;;;;;;;;;;;;;;;23.17;58.05;100045.75;2075199;28;20388;-47
2022/06/28 05:03:42;;;;;;;;;;;;;;;23.17;58.05;100045.75;2078765;28;20286;-47
2022/06/28 05:04:42;;;;;;;;;;;;;;;23.18;57.95;100041.97;2079312;28;20390;-45
2022/06/28 05:05:43;;;;;;;;;;;;;;;23.17;58.04;100052.09;2079031;28;19924;-46
2022/06/28 05:06:43;;;;;;;;;;;;;;;23.17;57.99;100045.75;2080479;28;19913;-46
2022/06/28 05:07:43;;;;;;;;;;;;;;;23.17;57.94;100045.75;2078611;28;20253;-47
2022/06/28 05:08:44;;;;;;;;;;;;;;;23.16;58.02;100038.53;2082011;28;19913;-49
2022/06/28 05:09:44;;;;;;;;;;;;;;;23.17;58.00;100043.00;2074983;28;19916;-46
2022/06/28 05:10:44;;;;;;;;;;;;;;;23.17;58.04;100040.25;2074033;28;19917;-46
2022/06/28 05:11:44;;;;;;;;;;;;;;;23.15;57.95;100042.31;2077407;28;19952;-46
2022/06/28 05:12:45;;;;;;;;;;;;;;;23.16;58.02;100039.41;2074832;28;20127;-47
2022/06/28 05:13:45;;;;;;;;;;;;;;;23.17;58.02;100037.50;2075705;28;19912;-46
2022/06/28 05:14:45;;;;;;;;;;;;;;;23.17;58.02;100037.50;2082214;28;20242;-49
2022/06/28 05:15:46;;;;;;;;;;;;;;;23.17;57.88;100034.75;2076838;28;19982;-46
2022/06/28 05:16:46;;;;;;;;;;;;;;;23.17;57.92;100034.75;2077485;28;19917;-46
2022/06/28 05:17:46;;;;;;;;;;;;;;;23.16;57.95;100038.53;2073639;28;20483;-46